createdAt,value
2023-03-26T00:00:15.437Z,7.23
2023-03-26T00:02:47.234Z,5.70
2023-03-26T00:05:15.140Z,2.77
2023-03-26T00:07:44.114Z,11.30
2023-03-26T00:10:21.619Z,5.40
2023-03-26T00:12:49.919Z,5.10
2023-03-26T00:15:19.852Z,5.70
2023-03-26T00:17:48.104Z,6.07
2023-03-26T00:20:16.814Z,4.43
2023-03-26T00:22:45.437Z,7.20
2023-03-26T00:25:14.608Z,5.43
2023-03-26T00:27:45.493Z,6.60
2023-03-26T00:30:14.281Z,6.60
2023-03-26T00:32:44.132Z,5.70
2023-03-26T00:35:22.318Z,5.53
2023-03-26T00:37:51.748Z,8.23
2023-03-26T00:40:20.980Z,7.53
2023-03-26T00:42:51.634Z,6.53
2023-03-26T00:45:22.198Z,6.07
2023-03-26T00:47:51.796Z,3.43
2023-03-26T00:50:19.928Z,7.00
2023-03-26T00:52:48.552Z,4.87
2023-03-26T00:55:17.621Z,5.17
2023-03-26T00:57:47.894Z,6.13
2023-03-26T01:00:19.051Z,5.90
2023-03-26T01:02:47.864Z,3.60
2023-03-26T01:05:46.174Z,7.40
2023-03-26T01:08:20.820Z,5.47
2023-03-26T01:10:54.611Z,6.50
2023-03-26T01:13:25.512Z,4.20
2023-03-26T01:15:53.966Z,3.57
2023-03-26T01:18:26.368Z,8.27
2023-03-26T01:21:05.461Z,6.23
2023-03-26T01:23:43.832Z,3.60
2023-03-26T01:26:26.594Z,10.23
2023-03-26T01:28:58.606Z,6.43
2023-03-26T01:31:31.358Z,7.90
2023-03-26T01:34:12.280Z,7.00
2023-03-26T01:36:58.856Z,9.37
2023-03-26T01:39:32.697Z,7.40
2023-03-26T01:42:13.758Z,8.53
2023-03-26T01:44:46.807Z,6.37
2023-03-26T01:47:16.482Z,6.93
2023-03-26T01:49:45.360Z,5.53
2023-03-26T01:52:17.142Z,8.77
2023-03-26T01:54:47.229Z,6.80
2023-03-26T01:57:26.507Z,11.37
2023-03-26T02:00:12.971Z,7.33
2023-03-26T02:02:55.636Z,7.40
2023-03-26T02:05:29.484Z,11.03
2023-03-26T02:08:04.168Z,6.50
2023-03-26T02:10:39.937Z,5.33
2023-03-26T02:13:11.577Z,9.13
2023-03-26T02:15:46.318Z,5.70
2023-03-26T02:18:17.928Z,4.40
2023-03-26T02:20:49.870Z,7.43
2023-03-26T02:23:18.989Z,8.17
2023-03-26T02:25:47.747Z,7.00
2023-03-26T02:28:21.917Z,6.30
2023-03-26T02:30:57.556Z,10.40
2023-03-26T02:33:27.597Z,6.17
2023-03-26T02:35:59.424Z,7.07
2023-03-26T02:38:28.049Z,6.37
2023-03-26T02:40:57.223Z,10.10
2023-03-26T02:43:26.613Z,14.57
2023-03-26T02:45:56.551Z,5.40
2023-03-26T02:48:26.240Z,6.13
2023-03-26T02:50:55.250Z,6.67
2023-03-26T02:53:29.941Z,9.97
2023-03-26T02:55:58.202Z,8.80
2023-03-26T02:58:32.824Z,4.27
2023-03-26T03:01:04.137Z,9.33
2023-03-26T03:03:32.937Z,8.57
2023-03-26T03:06:04.654Z,10.43
2023-03-26T03:08:33.843Z,7.70
2023-03-26T03:11:09.136Z,8.13
2023-03-26T03:13:39.416Z,6.20
2023-03-26T03:16:08.508Z,10.37
2023-03-26T03:18:39.909Z,7.17
2023-03-26T03:21:10.913Z,7.57
2023-03-26T03:23:39.072Z,6.57
2023-03-26T03:26:14.249Z,8.60
2023-03-26T03:28:46.462Z,5.83
2023-03-26T03:31:16.009Z,9.43
2023-03-26T03:33:46.294Z,9.63
2023-03-26T03:36:20.387Z,5.53
2023-03-26T03:38:50.702Z,8.00
2023-03-26T03:41:18.894Z,11.50
2023-03-26T03:43:48.924Z,8.67
2023-03-26T03:46:18.247Z,11.43
2023-03-26T03:48:49.735Z,14.40
2023-03-26T03:51:22.685Z,9.63
2023-03-26T03:53:51.006Z,8.23
2023-03-26T03:56:24.196Z,6.10
2023-03-26T03:58:55.795Z,8.50
2023-03-26T04:01:25.331Z,9.33
2023-03-26T04:03:55.620Z,11.83
2023-03-26T04:06:25.191Z,6.83
2023-03-26T04:08:53.744Z,8.30
2023-03-26T04:11:21.601Z,8.53
2023-03-26T04:13:50.904Z,7.83
2023-03-26T04:16:22.165Z,10.77
2023-03-26T04:18:53.257Z,8.90
2023-03-26T04:21:21.250Z,7.77
2023-03-26T04:23:50.687Z,10.30
2023-03-26T04:26:20.403Z,12.33
2023-03-26T04:28:54.483Z,7.03
2023-03-26T04:31:29.450Z,9.53
2023-03-26T04:34:06.745Z,8.07
2023-03-26T04:36:36.853Z,9.23
2023-03-26T04:39:06.969Z,10.43
2023-03-26T04:41:35.997Z,14.40
2023-03-26T04:44:05.654Z,14.10
2023-03-26T04:46:36.749Z,8.50
2023-03-26T04:49:05.799Z,7.77
2023-03-26T04:51:39.697Z,13.00
2023-03-26T04:54:13.594Z,7.53
2023-03-26T04:56:48.651Z,10.43
2023-03-26T04:59:26.678Z,12.87
2023-03-26T05:02:00.219Z,11.47
2023-03-26T05:04:29.660Z,9.00
2023-03-26T05:06:59.960Z,11.90
2023-03-26T05:09:28.951Z,10.23
2023-03-26T05:11:57.401Z,11.23
2023-03-26T05:14:25.500Z,12.83
2023-03-26T05:16:54.654Z,9.20
2023-03-26T05:19:26.082Z,10.17
2023-03-26T05:21:56.999Z,10.73
2023-03-26T05:24:25.918Z,9.60
2023-03-26T05:26:54.529Z,9.27
2023-03-26T05:29:24.611Z,11.93
2023-03-26T05:31:52.839Z,8.87
2023-03-26T05:34:24.591Z,7.53
2023-03-26T05:36:55.554Z,11.90
2023-03-26T05:39:26.564Z,9.67
2023-03-26T05:41:55.537Z,12.93
2023-03-26T05:44:25.076Z,7.67
2023-03-26T05:46:54.649Z,10.87
2023-03-26T05:49:23.078Z,6.97
2023-03-26T05:51:51.982Z,9.03
2023-03-26T05:54:22.848Z,8.53
2023-03-26T05:56:52.813Z,10.67
2023-03-26T05:59:22.065Z,13.60
2023-03-26T06:01:51.206Z,13.90
2023-03-26T06:04:19.465Z,8.20
2023-03-26T06:06:48.245Z,12.07
2023-03-26T06:09:16.934Z,8.13
2023-03-26T06:11:46.984Z,11.30
2023-03-26T06:14:18.136Z,6.67
2023-03-26T06:16:46.241Z,10.60
2023-03-26T06:19:14.322Z,13.57
2023-03-26T06:21:43.453Z,8.43
2023-03-26T06:24:12.555Z,11.63
2023-03-26T06:26:44.253Z,9.10
2023-03-26T06:29:15.226Z,12.03
2023-03-26T06:31:44.191Z,10.43
2023-03-26T06:34:15.437Z,13.10
2023-03-26T06:36:52.654Z,12.47
2023-03-26T06:39:21.605Z,10.50
2023-03-26T06:41:49.794Z,11.33
2023-03-26T06:44:20.663Z,10.00
2023-03-26T06:46:49.297Z,9.40
2023-03-26T06:49:17.656Z,14.80
2023-03-26T06:51:50.481Z,11.50
2023-03-26T06:54:18.943Z,12.57
2023-03-26T06:56:47.935Z,13.07
2023-03-26T06:59:17.782Z,9.47
2023-03-26T07:01:48.206Z,12.57
2023-03-26T07:04:18.150Z,8.57
2023-03-26T07:06:46.374Z,10.97
2023-03-26T07:09:16.521Z,8.20
2023-03-26T07:11:44.679Z,11.73
2023-03-26T07:14:13.525Z,11.40
2023-03-26T07:16:41.754Z,7.57
2023-03-26T07:19:14.311Z,8.23
2023-03-26T07:21:44.160Z,9.80
2023-03-26T07:24:17.055Z,7.00
2023-03-26T07:26:56.901Z,11.30
2023-03-26T07:29:35.054Z,8.53
2023-03-26T07:32:17.221Z,10.70
2023-03-26T07:34:54.911Z,9.67
2023-03-26T07:37:38.027Z,11.00
2023-03-26T07:40:17.911Z,10.13
2023-03-26T07:43:01.819Z,15.47
2023-03-26T07:45:38.101Z,11.13
2023-03-26T07:48:15.567Z,11.03
2023-03-26T07:50:48.907Z,13.73
2023-03-26T07:53:18.203Z,8.67
2023-03-26T07:55:54.620Z,13.57
2023-03-26T07:58:41.783Z,11.20
2023-03-26T08:01:18.171Z,15.53
2023-03-26T08:04:23.845Z,10.17
2023-03-26T08:07:01.214Z,16.17
2023-03-26T08:09:35.151Z,12.13
2023-03-26T08:12:14.886Z,12.40
2023-03-26T08:14:52.996Z,11.80
2023-03-26T08:17:32.408Z,10.30
2023-03-26T08:20:17.299Z,14.47
2023-03-26T08:22:55.224Z,18.50
2023-03-26T08:25:33.400Z,13.10
2023-03-26T08:28:15.298Z,13.87
2023-03-26T08:30:45.658Z,13.80
2023-03-26T08:33:20.614Z,14.93
2023-03-26T08:35:50.411Z,13.17
2023-03-26T08:38:21.499Z,10.97
2023-03-26T08:41:24.942Z,12.40
2023-03-26T08:44:31.417Z,12.40
2023-03-26T08:47:33.460Z,12.13
2023-03-26T08:50:50.589Z,7.97
2023-03-26T08:53:57.668Z,18.40
2023-03-26T08:56:43.887Z,9.73
2023-03-26T09:00:08.621Z,10.97
2023-03-26T09:03:08.874Z,12.93
2023-03-26T09:06:20.715Z,12.67
2023-03-26T09:09:30.676Z,12.60
2023-03-26T09:12:40.742Z,9.03
2023-03-26T09:15:51.704Z,14.57
2023-03-26T09:19:05.115Z,11.20
2023-03-26T09:22:13.683Z,12.93
2023-03-26T09:25:20.362Z,11.03
2023-03-26T09:28:20.820Z,7.43
2023-03-26T09:31:21.939Z,11.53
2023-03-26T09:33:59.457Z,10.07
2023-03-26T09:36:55.468Z,10.33
2023-03-26T09:39:36.087Z,11.17
2023-03-26T09:42:14.384Z,6.53
2023-03-26T09:45:06.451Z,14.17
2023-03-26T09:48:10.120Z,16.40
2023-03-26T09:51:04.607Z,4.63
2023-03-26T09:54:13.090Z,13.63
2023-03-26T09:56:52.379Z,36.97
2023-03-26T09:59:54.772Z,7.50
2023-03-26T10:02:50.276Z,6.83
2023-03-26T10:05:34.928Z,5.10
2023-03-26T10:08:32.228Z,3.83
2023-03-26T10:11:13.045Z,7.67
2023-03-26T10:13:56.396Z,6.00
2023-03-26T10:16:34.916Z,3.33
2023-03-26T10:19:26.105Z,10.30
2023-03-26T10:22:04.747Z,7.90
2023-03-26T10:24:45.876Z,8.73
2023-03-26T10:27:29.786Z,3.80
2023-03-26T10:30:35.890Z,6.37
2023-03-26T10:33:14.824Z,4.73
2023-03-26T10:36:06.222Z,5.83
2023-03-26T10:38:48.663Z,6.03
2023-03-26T10:41:23.367Z,3.33
2023-03-26T10:44:27.136Z,4.73
2023-03-26T10:47:22.920Z,22.13
2023-03-26T10:50:22.757Z,4.27
2023-03-26T10:52:59.709Z,6.50
2023-03-26T10:55:33.332Z,6.83
2023-03-26T10:58:06.462Z,9.37
2023-03-26T11:00:40.636Z,18.70
2023-03-26T11:03:34.436Z,27.43
2023-03-26T11:06:17.617Z,11.57
2023-03-26T11:08:56.927Z,3.10
2023-03-26T11:11:36.184Z,5.77
2023-03-26T11:14:24.408Z,2.60
2023-03-26T11:17:39.612Z,5.23
2023-03-26T11:20:29.526Z,5.17
2023-03-26T11:23:19.032Z,3.20
2023-03-26T11:26:05.340Z,2.90
2023-03-26T11:29:03.567Z,3.57
2023-03-26T11:31:50.680Z,3.37
2023-03-26T11:34:24.435Z,4.30
2023-03-26T11:37:04.055Z,2.93
2023-03-26T11:39:45.711Z,4.20
2023-03-26T11:42:24.138Z,5.07
2023-03-26T11:44:58.628Z,3.23
2023-03-26T11:47:34.326Z,7.23
2023-03-26T11:50:25.048Z,6.30
2023-03-26T11:52:54.983Z,3.70
2023-03-26T11:55:34.972Z,5.80
2023-03-26T11:58:13.664Z,4.70
2023-03-26T12:00:50.912Z,4.10
2023-03-26T12:03:23.076Z,4.90
2023-03-26T12:06:04.448Z,4.17
2023-03-26T12:08:39.651Z,4.03
2023-03-26T12:11:11.645Z,5.07
2023-03-26T12:13:46.012Z,4.30
2023-03-26T12:16:18.409Z,6.63
2023-03-26T12:19:06.250Z,5.63
2023-03-26T12:21:53.587Z,4.07
2023-03-26T12:24:33.284Z,5.20
2023-03-26T12:27:06.160Z,4.77
2023-03-26T12:29:38.520Z,4.70
2023-03-26T12:32:14.485Z,5.03
2023-03-26T12:34:43.102Z,2.00
2023-03-26T12:37:38.042Z,2.50
2023-03-26T12:40:27.235Z,3.27
2023-03-26T12:44:53.234Z,3.53
2023-03-26T12:47:54.123Z,3.63
2023-03-26T12:48:53.802Z,3.47
2023-03-26T12:51:42.104Z,3.40
2023-03-26T12:54:39.188Z,3.20
2023-03-26T12:57:22.899Z,2.00
2023-03-26T13:00:14.816Z,2.23
2023-03-26T13:03:01.560Z,2.13
2023-03-26T13:05:41.280Z,1.73
2023-03-26T13:08:33.043Z,1.97
2023-03-26T13:11:12.736Z,1.43
2023-03-26T13:14:00.856Z,2.70
2023-03-26T13:16:38.317Z,1.40
2023-03-26T13:19:14.514Z,1.80
2023-03-26T13:21:56.664Z,1.67
2023-03-26T13:24:39.239Z,2.27
2023-03-26T13:27:23.493Z,2.57
2023-03-26T13:29:57.773Z,3.37
2023-03-26T13:32:41.445Z,1.83
2023-03-26T13:35:26.017Z,3.13
2023-03-26T13:38:01.096Z,2.33
2023-03-26T13:40:43.225Z,2.70
2023-03-26T13:43:31.047Z,1.57
2023-03-26T13:46:08.980Z,3.70
2023-03-26T13:48:48.035Z,2.97
2023-03-26T13:51:20.979Z,3.03
2023-03-26T13:54:01.692Z,3.23
2023-03-26T13:56:36.846Z,3.70
2023-03-26T13:59:15.242Z,2.03
2023-03-26T14:01:53.983Z,2.90
2023-03-26T14:04:27.055Z,1.70
2023-03-26T14:07:04.209Z,2.17
2023-03-26T14:09:38.572Z,2.87
2023-03-26T14:12:40.657Z,2.73
2023-03-26T14:15:18.628Z,1.43
2023-03-26T14:17:52.031Z,1.67
2023-03-26T14:20:56.483Z,3.90
2023-03-26T14:23:46.130Z,3.03
2023-03-26T14:26:27.511Z,2.70
2023-03-26T14:29:26.177Z,2.70
2023-03-26T14:32:04.656Z,1.47
2023-03-26T14:34:46.805Z,2.33
2023-03-26T14:38:09.195Z,2.77
2023-03-26T14:41:03.739Z,2.93
2023-03-26T14:44:04.125Z,2.70
2023-03-26T14:46:47.370Z,2.37
2023-03-26T14:49:40.709Z,3.83
2023-03-26T14:52:19.649Z,4.13
2023-03-26T14:54:53.583Z,1.73
2023-03-26T14:57:47.882Z,2.07
2023-03-26T15:00:38.301Z,3.23
2023-03-26T15:03:53.887Z,4.23
2023-03-26T15:06:53.884Z,3.67
2023-03-26T15:09:57.960Z,1.87
2023-03-26T15:12:42.536Z,4.30
2023-03-26T15:15:53.885Z,2.00
2023-03-26T15:19:14.600Z,3.07
2023-03-26T15:22:20.412Z,2.27
2023-03-26T15:25:31.816Z,4.57
2023-03-26T15:31:51.783Z,5.20
2023-03-26T15:34:50.751Z,3.43
2023-03-26T15:37:44.120Z,2.43
2023-03-26T15:40:43.025Z,3.47
2023-03-26T15:43:16.706Z,3.70
2023-03-26T15:45:48.463Z,5.50
2023-03-26T15:48:43.071Z,3.13
2023-03-26T15:51:47.807Z,5.17
2023-03-26T15:54:24.286Z,5.87
2023-03-26T15:57:18.723Z,3.13
2023-03-26T16:00:15.096Z,0.70
2023-03-26T16:03:09.239Z,2.33
2023-03-26T16:06:00.265Z,4.00
2023-03-26T16:08:39.154Z,0.40
2023-03-26T16:11:12.630Z,0.97
2023-03-26T17:40:50.365Z,3.00
2023-03-26T17:43:52.889Z,2.70
2023-03-26T17:55:52.131Z,3.07
2023-03-26T17:58:33.944Z,4.93
2023-03-26T18:01:46.121Z,1.63
2023-03-26T18:08:32.652Z,6.33
2023-03-26T18:20:33.221Z,2.93
2023-03-26T18:23:27.591Z,2.87
2023-03-26T18:26:03.089Z,2.90
2023-03-26T18:28:41.993Z,3.00
2023-03-26T18:31:23.401Z,4.07
2023-03-26T18:34:05.086Z,2.43
2023-03-26T18:43:44.460Z,3.63
2023-03-26T18:46:24.116Z,2.03
2023-03-26T18:48:57.897Z,2.33
2023-03-26T18:51:46.370Z,3.40
2023-03-26T18:57:23.955Z,3.47
2023-03-26T19:06:11.463Z,3.10
2023-03-26T19:08:44.240Z,2.90
2023-03-26T19:11:23.789Z,2.13
2023-03-26T19:14:07.121Z,2.07
2023-03-26T19:16:44.646Z,2.90
2023-03-26T19:19:20.829Z,2.93
2023-03-26T19:24:37.499Z,4.17
2023-03-26T19:27:10.101Z,7.83
2023-03-26T19:32:34.606Z,1.90
2023-03-26T19:35:16.770Z,1.63
2023-03-26T19:37:57.571Z,8.13
2023-03-26T19:44:16.181Z,5.10
2023-03-26T19:53:37.121Z,1.83
2023-03-26T20:15:22.345Z,3.63
2023-03-26T20:22:09.598Z,1.67
2023-03-26T20:41:54.709Z,1.97
2023-03-26T20:48:32.117Z,1.30
2023-03-26T20:54:37.802Z,1.17
2023-03-26T20:57:16.902Z,1.00
2023-03-26T21:02:32.951Z,0.97
2023-03-26T21:05:03.027Z,2.90
2023-03-26T21:07:35.636Z,2.43
2023-03-26T21:10:09.994Z,0.80
2023-03-26T21:12:46.003Z,1.20
2023-03-26T21:15:22.808Z,0.70
2023-03-26T21:17:55.193Z,1.10
2023-03-26T21:20:30.247Z,1.03
2023-03-26T21:23:10.964Z,0.77
2023-03-26T21:25:55.354Z,1.13
2023-03-26T21:31:26.041Z,4.00
2023-03-26T21:33:57.496Z,1.87
2023-03-26T21:36:30.593Z,1.50
2023-03-26T21:39:42.406Z,3.00
2023-03-26T21:42:18.204Z,1.70
2023-03-26T21:45:10.192Z,2.80
2023-03-26T21:48:02.945Z,1.90
2023-03-26T21:50:38.901Z,2.40
2023-03-26T22:03:01.062Z,3.13
2023-03-26T22:05:52.020Z,2.30
2023-03-26T22:08:44.582Z,3.30
2023-03-26T22:11:18.052Z,2.43
2023-03-26T22:13:47.088Z,3.13
